createdAt,value
2023-02-11T00:01:30.502Z,7.60
2023-02-11T00:03:58.553Z,7.55
2023-02-11T00:06:26.524Z,7.60
2023-02-11T00:08:53.250Z,7.61
2023-02-11T00:11:21.419Z,7.56
2023-02-11T00:13:48.890Z,7.56
2023-02-11T00:16:20.961Z,7.59
2023-02-11T00:18:48.482Z,7.59
2023-02-11T00:21:17.580Z,7.59
2023-02-11T00:23:45.583Z,7.58
2023-02-11T00:26:24.800Z,7.60
2023-02-11T00:28:52.294Z,7.63
2023-02-11T00:31:20.541Z,7.61
2023-02-11T00:33:47.646Z,7.64
2023-02-11T00:36:16.854Z,7.62
2023-02-11T00:38:44.620Z,7.62
2023-02-11T00:41:12.294Z,7.61
2023-02-11T00:43:39.585Z,7.65
2023-02-11T00:46:06.933Z,7.66
2023-02-11T00:48:33.824Z,7.68
2023-02-11T00:51:00.793Z,7.59
2023-02-11T00:53:27.531Z,7.56
2023-02-11T00:55:54.110Z,7.55
2023-02-11T00:58:21.418Z,7.55
2023-02-11T01:00:48.446Z,7.59
2023-02-11T01:03:15.252Z,7.59
2023-02-11T01:05:41.856Z,7.64
2023-02-11T01:08:08.698Z,7.64
2023-02-11T01:10:41.691Z,7.62
2023-02-11T01:13:08.374Z,7.60
2023-02-11T01:15:35.166Z,7.60
2023-02-11T01:18:02.056Z,7.56
2023-02-11T01:20:29.791Z,7.54
2023-02-11T01:22:57.345Z,7.51
2023-02-11T01:25:24.015Z,7.51
2023-02-11T01:27:50.627Z,7.46
2023-02-11T01:30:17.487Z,7.51
2023-02-11T01:32:44.066Z,7.56
2023-02-11T01:35:10.758Z,7.56
2023-02-11T01:37:37.546Z,7.50
2023-02-11T01:40:11.998Z,7.49
2023-02-11T01:42:38.886Z,7.53
2023-02-11T01:45:39.709Z,7.52
2023-02-11T01:48:07.090Z,7.42
2023-02-11T01:50:34.102Z,7.37
2023-02-11T01:53:20.987Z,7.37
2023-02-11T01:56:06.349Z,7.40
2023-02-11T01:58:33.556Z,7.37
2023-02-11T02:01:01.151Z,7.33
2023-02-11T02:03:28.500Z,7.33
2023-02-11T02:06:17.132Z,7.29
2023-02-11T02:08:57.216Z,7.33
2023-02-11T02:11:23.928Z,7.32
2023-02-11T02:13:50.941Z,7.25
2023-02-11T02:16:20.619Z,7.32
2023-02-11T02:19:05.498Z,7.34
2023-02-11T02:22:14.528Z,7.30
2023-02-11T02:25:12.866Z,7.30
2023-02-11T02:28:12.837Z,7.22
2023-02-11T02:31:23.916Z,7.21
2023-02-11T02:33:56.488Z,7.21
2023-02-11T02:36:31.924Z,7.24
2023-02-11T02:39:05.967Z,7.20
2023-02-11T02:41:34.105Z,7.27
2023-02-11T02:44:01.561Z,7.26
2023-02-11T02:46:31.163Z,7.23
2023-02-11T02:48:58.556Z,7.15
2023-02-11T02:51:40.429Z,7.15
2023-02-11T02:54:07.042Z,7.18
2023-02-11T02:56:50.428Z,7.19
2023-02-11T02:59:34.254Z,7.18
2023-02-11T03:02:00.796Z,7.17
2023-02-11T03:04:47.596Z,7.22
2023-02-11T03:07:55.716Z,7.23
2023-02-11T03:10:27.662Z,7.23
2023-02-11T03:12:55.430Z,7.19
2023-02-11T03:15:23.979Z,7.19
2023-02-11T03:17:52.506Z,7.10
2023-02-11T03:20:21.214Z,7.10
2023-02-11T03:23:37.470Z,7.09
2023-02-11T03:26:25.541Z,7.08
2023-02-11T03:28:59.929Z,7.05
2023-02-11T03:31:31.504Z,7.15
2023-02-11T03:34:09.572Z,7.12
2023-02-11T03:36:46.056Z,7.16
2023-02-11T03:39:19.135Z,7.15
2023-02-11T03:41:47.837Z,7.09
2023-02-11T03:44:15.960Z,7.09
2023-02-11T03:46:45.146Z,7.02
2023-02-11T03:49:13.958Z,7.04
2023-02-11T03:51:40.766Z,7.02
2023-02-11T03:54:12.110Z,7.01
2023-02-11T03:56:46.057Z,7.00
2023-02-11T03:59:12.675Z,6.96
2023-02-11T04:01:39.342Z,6.95
2023-02-11T04:04:06.056Z,6.92
2023-02-11T04:06:32.797Z,6.91
2023-02-11T04:08:59.634Z,6.86
2023-02-11T04:11:26.262Z,6.88
2023-02-11T04:13:52.967Z,6.89
2023-02-11T04:16:19.686Z,6.83
2023-02-11T04:18:46.306Z,6.89
2023-02-11T04:21:12.969Z,6.89
2023-02-11T04:23:44.693Z,6.85
2023-02-11T04:26:11.346Z,6.85
2023-02-11T04:28:38.060Z,6.84
2023-02-11T04:31:04.989Z,6.82
2023-02-11T04:33:31.749Z,6.82
2023-02-11T04:35:58.380Z,6.82
2023-02-11T04:38:25.049Z,6.78
2023-02-11T04:40:51.778Z,6.80
2023-02-11T04:43:18.499Z,6.76
2023-02-11T04:45:45.096Z,6.75
2023-02-11T04:48:11.703Z,6.76
2023-02-11T04:50:38.340Z,6.78
2023-02-11T04:53:04.983Z,6.74
2023-02-11T04:55:31.608Z,6.72
2023-02-11T04:57:58.248Z,6.68
2023-02-11T05:00:24.969Z,6.69
2023-02-11T05:02:51.609Z,6.78
2023-02-11T05:05:18.372Z,6.77
2023-02-11T05:07:45.027Z,6.82
2023-02-11T05:10:11.674Z,6.76
2023-02-11T05:12:38.418Z,6.68
2023-02-11T05:15:05.505Z,6.67
2023-02-11T05:17:32.213Z,6.62
2023-02-11T05:19:58.964Z,6.65
2023-02-11T05:22:25.636Z,6.60
2023-02-11T05:24:52.332Z,6.58
2023-02-11T05:27:18.991Z,6.57
2023-02-11T05:29:45.653Z,6.54
2023-02-11T05:32:12.307Z,6.57
2023-02-11T05:34:38.934Z,6.59
2023-02-11T05:37:05.592Z,6.56
2023-02-11T05:39:32.300Z,6.59
2023-02-11T05:41:59.031Z,6.60
2023-02-11T05:44:25.808Z,6.64
2023-02-11T05:46:52.443Z,6.62
2023-02-11T05:49:19.013Z,6.60
2023-02-11T05:51:45.767Z,6.62
2023-02-11T05:54:12.554Z,6.56
2023-02-11T05:56:39.178Z,6.60
2023-02-11T05:59:05.893Z,6.60
2023-02-11T06:01:32.514Z,6.64
2023-02-11T06:03:59.180Z,6.59
2023-02-11T06:06:25.904Z,6.62
2023-02-11T06:08:52.516Z,6.66
2023-02-11T06:11:20.464Z,6.67
2023-02-11T06:13:52.243Z,6.70
2023-02-11T06:16:18.956Z,6.71
2023-02-11T06:18:45.579Z,6.72
2023-02-11T06:21:12.794Z,6.72
2023-02-11T06:23:39.853Z,6.72
2023-02-11T06:26:08.923Z,6.72
2023-02-11T06:28:36.347Z,6.72
2023-02-11T06:31:07.048Z,6.74
2023-02-11T06:33:34.877Z,6.69
2023-02-11T06:36:02.001Z,6.69
2023-02-11T06:38:28.591Z,6.74
2023-02-11T06:40:55.232Z,6.73
2023-02-11T06:43:21.947Z,6.70
2023-02-11T06:45:55.373Z,6.73
2023-02-11T06:48:27.078Z,6.76
2023-02-11T06:50:53.699Z,6.72
2023-02-11T06:53:20.469Z,6.73
2023-02-11T06:55:47.197Z,6.71
2023-02-11T06:58:13.947Z,6.76
2023-02-11T07:00:40.720Z,6.75
2023-02-11T07:03:07.417Z,6.77
2023-02-11T07:05:34.458Z,6.73
2023-02-11T07:08:01.211Z,6.80
2023-02-11T07:10:27.903Z,6.80
2023-02-11T07:12:56.000Z,6.82
2023-02-11T07:15:24.302Z,6.81
2023-02-11T07:17:50.894Z,6.78
2023-02-11T07:20:17.640Z,6.77
2023-02-11T07:22:44.334Z,6.75
2023-02-11T07:25:11.011Z,6.77
2023-02-11T07:27:37.699Z,6.79
2023-02-11T07:30:07.231Z,6.79
2023-02-11T07:32:34.047Z,6.80
2023-02-11T07:35:00.735Z,6.77
2023-02-11T07:37:27.552Z,6.77
2023-02-11T07:39:54.171Z,6.75
2023-02-11T07:42:20.764Z,6.80
2023-02-11T07:44:50.221Z,6.77
2023-02-11T07:47:17.182Z,6.83
2023-02-11T07:49:43.850Z,6.84
2023-02-11T07:52:10.480Z,6.85
2023-02-11T07:54:37.144Z,6.84
2023-02-11T07:57:03.875Z,6.86
2023-02-11T07:59:30.596Z,6.87
2023-02-11T08:01:57.325Z,6.85
2023-02-11T08:04:23.984Z,6.85
2023-02-11T08:06:52.943Z,6.93
2023-02-11T08:09:19.582Z,6.95
2023-02-11T08:11:46.285Z,6.98
2023-02-11T08:14:13.055Z,7.03
2023-02-11T08:16:40.656Z,7.09
2023-02-11T08:19:11.153Z,7.06
2023-02-11T08:21:38.167Z,7.02
2023-02-11T08:24:05.178Z,7.04
2023-02-11T08:26:34.538Z,7.01
2023-02-11T08:29:02.966Z,7.05
2023-02-11T08:31:38.718Z,7.01
2023-02-11T08:34:05.945Z,7.01
2023-02-11T08:36:35.969Z,7.03
2023-02-11T08:39:18.133Z,7.07
2023-02-11T08:41:51.743Z,6.99
2023-02-11T08:44:19.607Z,7.05
2023-02-11T08:46:47.073Z,7.07
2023-02-11T08:49:14.337Z,7.07
2023-02-11T08:51:41.516Z,7.07
2023-02-11T08:54:11.051Z,7.09
2023-02-11T08:56:38.770Z,7.16
2023-02-11T08:59:06.100Z,7.17
2023-02-11T09:01:33.783Z,7.14
2023-02-11T09:04:01.265Z,7.20
2023-02-11T09:06:28.719Z,7.27
2023-02-11T09:08:56.999Z,7.31
2023-02-11T09:11:33.823Z,7.31
2023-02-11T09:14:01.587Z,7.34
2023-02-11T09:16:30.474Z,7.36
2023-02-11T09:18:59.065Z,7.33
2023-02-11T09:21:26.312Z,7.36
2023-02-11T09:23:53.398Z,7.33
2023-02-11T09:26:22.860Z,7.33
2023-02-11T09:28:50.049Z,7.38
2023-02-11T09:31:18.838Z,7.41
2023-02-11T09:33:50.537Z,7.47
2023-02-11T09:36:24.160Z,7.47
2023-02-11T09:38:51.667Z,7.50
2023-02-11T09:41:24.382Z,7.51
2023-02-11T09:43:59.849Z,7.48
2023-02-11T09:46:27.832Z,7.48
2023-02-11T09:48:54.964Z,7.53
2023-02-11T09:51:24.705Z,7.54
2023-02-11T09:53:54.728Z,7.60
2023-02-11T09:56:21.782Z,7.57
2023-02-11T09:58:48.507Z,7.63
2023-02-11T10:01:36.352Z,7.64
2023-02-11T10:04:09.170Z,7.64
2023-02-11T10:06:42.236Z,7.62
2023-02-11T10:09:27.568Z,7.65
2023-02-11T10:12:09.273Z,7.68
2023-02-11T10:14:39.029Z,7.69
2023-02-11T10:17:44.120Z,7.74
2023-02-11T10:20:23.333Z,7.72
2023-02-11T10:22:56.027Z,7.77
2023-02-11T10:25:34.416Z,7.75
2023-02-11T10:28:02.536Z,7.68
2023-02-11T10:30:35.355Z,7.70
2023-02-11T10:33:18.770Z,7.69
2023-02-11T10:35:45.805Z,7.73
2023-02-11T10:38:17.750Z,7.78
2023-02-11T10:40:44.807Z,7.77
2023-02-11T10:43:14.282Z,7.80
2023-02-11T10:45:47.407Z,7.82
2023-02-11T10:48:42.342Z,7.80
2023-02-11T10:51:25.842Z,7.88
2023-02-11T10:54:04.713Z,7.91
2023-02-11T10:56:33.326Z,7.92
2023-02-11T10:59:01.207Z,7.98
2023-02-11T11:01:53.865Z,8.00
2023-02-11T11:04:41.227Z,7.95
2023-02-11T11:07:25.933Z,8.01
2023-02-11T11:09:59.815Z,8.04
2023-02-11T11:12:46.684Z,8.08
2023-02-11T11:15:22.986Z,8.08
2023-02-11T11:18:22.413Z,8.12
2023-02-11T11:21:06.062Z,8.12
2023-02-11T11:23:35.226Z,8.14
2023-02-11T11:26:13.790Z,8.12
2023-02-11T11:29:03.102Z,8.18
2023-02-11T11:31:37.467Z,8.19
2023-02-11T11:34:21.286Z,8.18
2023-02-11T11:36:52.265Z,8.15
2023-02-11T11:39:30.492Z,8.18
2023-02-11T11:42:02.011Z,8.20
2023-02-11T11:44:40.894Z,8.18
2023-02-11T11:47:13.674Z,8.15
2023-02-11T11:50:04.246Z,8.19
2023-02-11T11:52:37.884Z,8.18
2023-02-11T11:55:17.511Z,8.18
2023-02-11T11:57:44.534Z,8.23
2023-02-11T12:00:20.911Z,8.27
2023-02-11T12:03:01.095Z,8.24
2023-02-11T12:05:50.287Z,8.26
2023-02-11T12:08:16.811Z,8.27
2023-02-11T12:11:16.053Z,8.29
2023-02-11T12:14:20.022Z,8.34
2023-02-11T12:16:55.914Z,8.35
2023-02-11T12:19:43.358Z,8.38
2023-02-11T12:22:12.813Z,8.35
2023-02-11T12:24:52.663Z,8.39
2023-02-11T12:27:32.613Z,8.45
2023-02-11T12:30:37.232Z,8.44
2023-02-11T12:33:22.220Z,8.52
2023-02-11T12:36:03.031Z,8.57
2023-02-11T12:38:38.035Z,8.54
2023-02-11T12:41:45.105Z,8.54
2023-02-11T12:44:40.052Z,8.44
2023-02-11T12:47:19.269Z,8.42
2023-02-11T12:49:49.914Z,8.43
2023-02-11T12:52:16.556Z,8.44
2023-02-11T12:54:48.193Z,8.50
2023-02-11T12:57:22.473Z,8.61
2023-02-11T12:59:57.938Z,8.64
2023-02-11T13:02:54.446Z,8.68
2023-02-11T13:05:32.246Z,8.62
2023-02-11T13:08:05.203Z,8.66
2023-02-11T13:10:40.712Z,8.72
2023-02-11T13:13:18.867Z,8.79
2023-02-11T13:15:52.355Z,8.81
2023-02-11T13:18:55.615Z,8.78
2023-02-11T13:21:29.838Z,8.78
2023-02-11T13:24:18.333Z,8.81
2023-02-11T13:27:13.102Z,8.79
2023-02-11T13:30:04.375Z,8.87
2023-02-11T13:32:56.320Z,8.85
2023-02-11T13:35:41.606Z,8.85
2023-02-11T13:38:18.426Z,8.81
2023-02-11T13:40:45.684Z,8.78
2023-02-11T13:43:28.970Z,8.80
2023-02-11T13:46:04.267Z,8.82
2023-02-11T13:48:37.385Z,8.82
2023-02-11T13:51:07.072Z,8.84
2023-02-11T13:53:56.488Z,8.88
2023-02-11T13:56:38.147Z,8.91
2023-02-11T13:59:27.685Z,8.92
2023-02-11T14:02:13.188Z,8.95
2023-02-11T14:05:23.541Z,8.97
2023-02-11T14:08:30.538Z,9.02
2023-02-11T14:11:15.522Z,9.03
2023-02-11T14:13:48.362Z,9.07
2023-02-11T14:16:31.580Z,9.08
2023-02-11T14:19:04.743Z,9.30
2023-02-11T14:21:44.690Z,9.43
2023-02-11T14:24:11.766Z,9.51
2023-02-11T14:26:47.773Z,9.65
2023-02-11T14:29:39.366Z,9.73
2023-02-11T14:32:41.050Z,9.88
2023-02-11T14:35:18.489Z,10.08
2023-02-11T14:38:09.990Z,10.43
2023-02-11T14:40:50.605Z,10.82
2023-02-11T14:43:20.936Z,11.36
2023-02-11T14:45:52.352Z,12.06
2023-02-11T14:48:20.440Z,12.13
2023-02-11T14:50:59.415Z,11.57
2023-02-11T14:53:26.507Z,10.94
2023-02-11T14:55:55.256Z,10.58
2023-02-11T14:58:28.163Z,10.28
2023-02-11T15:01:10.381Z,10.12
2023-02-11T15:03:42.066Z,9.96
2023-02-11T15:13:32.748Z,9.56
2023-02-11T15:16:07.962Z,9.53
2023-02-11T15:18:38.428Z,9.57
2023-02-11T15:21:09.075Z,9.58
2023-02-11T15:23:36.593Z,9.52
2023-02-11T15:26:13.336Z,9.49
2023-02-11T15:28:49.119Z,9.47
2023-02-11T15:31:17.682Z,9.48
2023-02-11T15:33:44.639Z,9.52
2023-02-11T15:36:15.711Z,9.56
2023-02-11T15:38:42.914Z,9.54
2023-02-11T15:41:36.944Z,9.45
2023-02-11T15:44:06.262Z,9.35
2023-02-11T15:46:40.400Z,9.31
2023-02-11T15:49:08.685Z,9.35
2023-02-11T15:51:38.453Z,9.35
2023-02-11T15:54:17.275Z,9.33
2023-02-11T15:56:46.133Z,9.36
2023-02-11T15:59:19.201Z,9.33
2023-02-11T16:01:46.927Z,9.33
2023-02-11T16:04:19.080Z,9.38
2023-02-11T16:06:49.292Z,9.38
2023-02-11T16:09:15.913Z,9.36
2023-02-11T16:11:58.374Z,9.37
2023-02-11T16:14:27.947Z,9.33
2023-02-11T16:17:00.617Z,9.34
2023-02-11T16:19:28.860Z,9.31
2023-02-11T16:21:57.188Z,9.38
2023-02-11T16:24:32.329Z,9.33
2023-02-11T16:27:04.644Z,9.31
2023-02-11T16:29:33.811Z,9.27
2023-02-11T16:32:10.012Z,9.29
2023-02-11T16:34:37.746Z,9.25
2023-02-11T16:37:05.652Z,9.26
2023-02-11T16:39:33.811Z,9.27
2023-02-11T16:42:01.546Z,9.26
2023-02-11T16:44:29.201Z,9.28
2023-02-11T16:46:59.216Z,9.23
2023-02-11T16:49:36.601Z,9.27
2023-02-11T16:52:13.275Z,9.25
2023-02-11T16:54:39.897Z,9.20
2023-02-11T16:57:32.783Z,9.18
2023-02-11T16:59:59.953Z,9.16
2023-02-11T17:02:29.740Z,9.17
2023-02-11T17:04:58.907Z,9.16
2023-02-11T17:07:26.014Z,9.17
2023-02-11T17:09:52.700Z,9.18
2023-02-11T17:12:20.296Z,9.20
2023-02-11T17:14:47.136Z,9.17
2023-02-11T17:17:14.090Z,9.18
2023-02-11T17:19:40.843Z,9.20
2023-02-11T17:22:07.761Z,9.21
2023-02-11T17:24:34.438Z,9.21
2023-02-11T17:27:01.061Z,9.20
2023-02-11T17:29:27.770Z,9.24
2023-02-11T17:31:54.730Z,9.22
2023-02-11T17:34:22.948Z,9.21
2023-02-11T17:36:50.042Z,9.21
2023-02-11T17:39:16.775Z,9.13
2023-02-11T17:41:43.649Z,9.12
2023-02-11T17:44:12.407Z,9.13
2023-02-11T17:46:39.724Z,9.09
2023-02-11T17:49:06.565Z,9.07
2023-02-11T17:51:35.673Z,9.07
2023-02-11T17:54:05.423Z,9.06
2023-02-11T17:56:33.389Z,9.10
2023-02-11T17:59:02.474Z,9.08
2023-02-11T18:01:30.076Z,9.10
2023-02-11T18:03:56.775Z,9.07
2023-02-11T18:06:23.668Z,9.07
2023-02-11T18:08:50.305Z,9.08
2023-02-11T18:11:17.041Z,9.05
2023-02-11T18:13:45.183Z,9.01
2023-02-11T18:16:15.981Z,8.98
2023-02-11T18:18:43.573Z,8.99
2023-02-11T18:21:15.514Z,9.01
2023-02-11T18:23:42.479Z,8.99
2023-02-11T18:26:10.476Z,8.96
2023-02-11T18:28:37.524Z,8.96
2023-02-11T18:31:05.152Z,8.96
2023-02-11T18:33:31.909Z,8.95
2023-02-11T18:35:58.751Z,8.95
2023-02-11T18:38:25.756Z,8.99
2023-02-11T18:40:52.587Z,8.97
2023-02-11T18:43:20.241Z,8.98
2023-02-11T18:45:48.297Z,8.96
2023-02-11T18:48:15.671Z,8.94
2023-02-11T18:50:44.739Z,8.97
2023-02-11T18:53:13.841Z,9.02
2023-02-11T18:55:41.854Z,8.98
2023-02-11T18:58:08.563Z,8.97
2023-02-11T19:00:37.548Z,8.98
2023-02-11T19:03:04.440Z,8.97
2023-02-11T19:05:33.570Z,8.97
2023-02-11T19:08:03.374Z,8.95
2023-02-11T19:10:30.075Z,8.99
2023-02-11T19:12:59.469Z,8.98
2023-02-11T19:15:26.399Z,8.93
2023-02-11T19:17:53.279Z,8.94
2023-02-11T19:20:20.188Z,8.92
2023-02-11T19:22:47.058Z,8.93
2023-02-11T19:25:22.745Z,8.89
2023-02-11T19:27:49.493Z,8.89
2023-02-11T19:30:16.420Z,8.89
2023-02-11T19:32:45.160Z,8.89
2023-02-11T19:35:12.148Z,8.92
2023-02-11T19:37:39.042Z,8.89
2023-02-11T19:40:06.693Z,8.87
2023-02-11T19:42:33.478Z,8.81
2023-02-11T19:45:07.403Z,8.83
2023-02-11T19:47:34.442Z,8.83
2023-02-11T19:50:01.169Z,8.86
2023-02-11T19:52:27.970Z,8.89
2023-02-11T19:54:54.727Z,8.91
2023-02-11T19:57:21.501Z,8.98
2023-02-11T19:59:48.241Z,8.88
2023-02-11T20:02:14.972Z,8.90
2023-02-11T20:04:41.681Z,8.89
2023-02-11T20:07:08.501Z,8.90
2023-02-11T20:09:35.258Z,8.91
2023-02-11T20:12:01.990Z,8.89
2023-02-11T20:14:28.687Z,8.93
2023-02-11T20:16:55.446Z,8.96
2023-02-11T20:19:22.330Z,8.95
2023-02-11T20:21:51.717Z,8.95
2023-02-11T20:24:19.206Z,8.97
2023-02-11T20:26:48.639Z,9.00
2023-02-11T20:29:17.141Z,8.90
2023-02-11T20:31:44.463Z,8.93
2023-02-11T20:34:12.418Z,8.88
2023-02-11T20:36:40.674Z,8.91
2023-02-11T20:39:08.063Z,8.90
2023-02-11T20:41:36.382Z,8.87
2023-02-11T20:44:06.482Z,8.85
2023-02-11T20:46:34.380Z,8.88
2023-02-11T20:49:02.016Z,8.91
2023-02-11T20:51:30.770Z,8.90
2023-02-11T20:53:57.906Z,8.93
2023-02-11T20:56:29.749Z,8.84
2023-02-11T20:59:00.750Z,8.84
2023-02-11T21:01:30.811Z,8.81
2023-02-11T21:04:02.550Z,8.82
2023-02-11T21:06:37.924Z,8.88
2023-02-11T21:09:05.882Z,8.86
2023-02-11T21:11:32.942Z,8.88
2023-02-11T21:14:00.154Z,8.91
2023-02-11T21:16:27.336Z,8.94
2023-02-11T21:18:55.596Z,8.85
2023-02-11T21:21:23.241Z,8.89
2023-02-11T21:23:50.294Z,8.94
2023-02-11T21:26:19.963Z,8.91
2023-02-11T21:28:46.638Z,8.90
2023-02-11T21:31:22.940Z,8.88
2023-02-11T21:33:50.659Z,8.91
2023-02-11T21:36:18.037Z,8.92
2023-02-11T21:38:45.048Z,9.01
2023-02-11T21:41:12.028Z,8.97
2023-02-11T21:43:38.886Z,9.00
2023-02-11T21:46:11.109Z,8.87
2023-02-11T21:48:43.465Z,8.85
2023-02-11T21:51:13.990Z,8.87
2023-02-11T21:53:40.725Z,8.83
2023-02-11T21:56:10.742Z,8.84
2023-02-11T21:58:37.861Z,8.75
2023-02-11T22:01:32.412Z,8.79
2023-02-11T22:03:59.875Z,8.76
2023-02-11T22:06:31.091Z,8.70
2023-02-11T22:09:10.007Z,8.77
2023-02-11T22:11:37.760Z,8.78
2023-02-11T22:14:05.121Z,8.84
2023-02-11T22:16:31.968Z,8.88
2023-02-11T22:18:59.115Z,8.88
2023-02-11T22:21:25.940Z,8.84
2023-02-11T22:23:54.847Z,8.85
2023-02-11T22:26:23.597Z,8.88
2023-02-11T22:28:51.118Z,8.81
2023-02-11T22:31:36.468Z,8.76
2023-02-11T22:34:04.777Z,8.79
2023-02-11T22:36:37.470Z,8.81
2023-02-11T22:39:07.258Z,8.79
2023-02-11T22:41:34.350Z,8.79
2023-02-11T22:44:01.228Z,8.84
2023-02-11T22:46:28.782Z,8.83
2023-02-11T22:48:55.603Z,8.84
2023-02-11T22:51:24.646Z,8.87
2023-02-11T22:53:53.255Z,8.83
2023-02-11T22:56:24.048Z,8.84
2023-02-11T22:58:52.299Z,8.86
2023-02-11T23:01:19.620Z,8.87
2023-02-11T23:03:46.495Z,8.85
2023-02-11T23:06:13.361Z,8.78
2023-02-11T23:08:40.916Z,8.80
2023-02-11T23:11:19.613Z,8.91
2023-02-11T23:13:47.495Z,8.90
2023-02-11T23:16:20.126Z,8.85
2023-02-11T23:18:48.275Z,8.74
2023-02-11T23:21:21.562Z,8.65
2023-02-11T23:23:49.661Z,8.64
2023-02-11T23:26:18.495Z,8.65
2023-02-11T23:28:48.782Z,8.70
2023-02-11T23:31:20.579Z,8.74
2023-02-11T23:33:47.945Z,8.80
2023-02-11T23:36:15.346Z,8.83
2023-02-11T23:38:42.202Z,8.81
2023-02-11T23:41:09.058Z,8.85
2023-02-11T23:43:35.764Z,8.86
2023-02-11T23:46:02.574Z,8.93
2023-02-11T23:48:29.327Z,8.88
2023-02-11T23:50:55.990Z,8.94
2023-02-11T23:53:22.652Z,8.91
2023-02-11T23:55:49.427Z,8.90
2023-02-11T23:58:16.717Z,8.91
